createdAt,value
2022-12-04T00:01:14.003Z,42.83
2022-12-04T00:03:40.970Z,42.15
2022-12-04T00:06:11.471Z,40.42
2022-12-04T00:08:39.236Z,39.88
2022-12-04T00:11:08.805Z,39.40
2022-12-04T00:13:36.813Z,39.25
2022-12-04T00:16:13.001Z,38.25
2022-12-04T00:18:40.393Z,43.10
2022-12-04T00:21:10.472Z,40.50
2022-12-04T00:23:38.990Z,43.17
2022-12-04T00:26:17.800Z,42.92
2022-12-04T00:28:45.318Z,39.10
2022-12-04T00:31:15.866Z,33.95
2022-12-04T00:33:43.382Z,39.78
2022-12-04T00:36:12.787Z,37.60
2022-12-04T00:38:40.859Z,35.35
2022-12-04T00:41:12.648Z,36.17
2022-12-04T00:43:40.312Z,34.80
2022-12-04T00:46:08.091Z,38.50
2022-12-04T00:48:35.235Z,36.53
2022-12-04T00:51:04.453Z,33.40
2022-12-04T00:53:31.788Z,38.03
2022-12-04T00:55:59.025Z,35.45
2022-12-04T00:58:25.863Z,38.60
2022-12-04T01:01:05.513Z,38.42
2022-12-04T01:03:32.509Z,38.63
2022-12-04T01:06:00.016Z,40.35
2022-12-04T01:08:27.313Z,44.15
2022-12-04T01:10:54.238Z,37.72
2022-12-04T01:13:22.424Z,40.13
2022-12-04T01:15:49.705Z,35.28
2022-12-04T01:18:17.900Z,40.25
2022-12-04T01:20:48.887Z,40.20
2022-12-04T01:23:15.911Z,36.60
2022-12-04T01:25:59.451Z,35.15
2022-12-04T01:28:26.814Z,36.10
2022-12-04T01:31:21.268Z,36.92
2022-12-04T01:33:49.397Z,34.45
2022-12-04T01:36:22.767Z,37.28
2022-12-04T01:38:49.696Z,32.05
2022-12-04T01:41:19.596Z,34.33
2022-12-04T01:44:06.343Z,33.25
2022-12-04T01:46:33.244Z,30.63
2022-12-04T01:49:00.428Z,33.50
2022-12-04T01:51:33.369Z,28.52
2022-12-04T01:54:05.210Z,30.80
2022-12-04T01:57:06.504Z,30.05
2022-12-04T01:59:38.474Z,30.40
2022-12-04T02:02:09.763Z,31.80
2022-12-04T02:04:38.734Z,28.25
2022-12-04T02:07:06.048Z,29.42
2022-12-04T02:09:34.354Z,26.33
2022-12-04T02:12:13.194Z,27.10
2022-12-04T02:14:39.999Z,26.40
2022-12-04T02:17:15.939Z,27.90
2022-12-04T02:20:13.695Z,26.77
2022-12-04T02:23:05.614Z,23.10
2022-12-04T02:25:55.923Z,26.05
2022-12-04T02:28:41.385Z,26.80
2022-12-04T02:31:18.433Z,30.98
2022-12-04T02:34:04.066Z,27.70
2022-12-04T02:36:36.514Z,25.05
2022-12-04T02:39:12.367Z,26.27
2022-12-04T02:41:56.072Z,24.08
2022-12-04T02:44:30.348Z,26.98
2022-12-04T02:47:07.192Z,29.55
2022-12-04T02:49:45.575Z,28.55
2022-12-04T02:52:17.994Z,22.48
2022-12-04T02:54:56.102Z,29.23
2022-12-04T02:57:28.741Z,35.00
2022-12-04T02:59:58.132Z,28.83
2022-12-04T03:02:32.078Z,31.33
2022-12-04T03:05:03.583Z,41.95
2022-12-04T03:08:02.833Z,30.58
2022-12-04T03:10:38.113Z,30.88
2022-12-04T03:13:16.137Z,35.28
2022-12-04T03:15:45.575Z,32.33
2022-12-04T03:18:18.470Z,33.97
2022-12-04T03:20:50.187Z,27.90
2022-12-04T03:23:26.039Z,27.88
2022-12-04T03:26:12.153Z,27.58
2022-12-04T03:29:11.909Z,33.55
2022-12-04T03:31:47.205Z,28.00
2022-12-04T03:34:20.113Z,27.02
2022-12-04T03:36:53.229Z,28.73
2022-12-04T03:39:26.476Z,26.42
2022-12-04T03:42:08.440Z,31.20
2022-12-04T03:44:49.241Z,19.63
2022-12-04T03:47:26.161Z,24.45
2022-12-04T03:50:02.020Z,19.48
2022-12-04T03:52:53.471Z,19.25
2022-12-04T03:55:29.028Z,15.95
2022-12-04T03:58:02.234Z,19.05
2022-12-04T04:00:30.034Z,16.52
2022-12-04T04:03:07.573Z,20.90
2022-12-04T04:05:38.260Z,19.15
2022-12-04T04:08:26.386Z,17.15
2022-12-04T04:11:25.758Z,16.70
2022-12-04T04:14:23.721Z,15.35
2022-12-04T04:17:18.011Z,15.52
2022-12-04T04:20:08.937Z,16.27
2022-12-04T04:22:56.296Z,16.90
2022-12-04T04:25:26.887Z,17.27
2022-12-04T04:27:58.841Z,14.50
2022-12-04T04:30:29.475Z,13.93
2022-12-04T04:33:16.378Z,18.85
2022-12-04T04:36:02.659Z,16.02
2022-12-04T04:38:45.718Z,18.15
2022-12-04T04:41:22.015Z,16.48
2022-12-04T04:44:33.799Z,16.35
2022-12-04T04:47:06.128Z,16.15
2022-12-04T04:49:35.937Z,17.48
2022-12-04T04:52:03.467Z,16.30
2022-12-04T04:54:32.190Z,17.13
2022-12-04T04:56:59.285Z,20.83
2022-12-04T04:59:26.132Z,17.70
2022-12-04T05:01:53.022Z,19.55
2022-12-04T05:04:19.992Z,17.63
2022-12-04T05:06:48.940Z,13.82
2022-12-04T05:09:15.853Z,17.67
2022-12-04T05:11:43.085Z,16.23
2022-12-04T05:14:10.039Z,20.83
2022-12-04T05:16:38.462Z,16.80
2022-12-04T05:19:23.794Z,18.23
2022-12-04T05:21:51.043Z,19.13
2022-12-04T05:24:17.826Z,19.60
2022-12-04T05:26:44.690Z,20.77
2022-12-04T05:29:11.497Z,25.08
2022-12-04T05:31:38.888Z,27.40
2022-12-04T05:34:05.765Z,25.10
2022-12-04T05:36:32.493Z,23.63
2022-12-04T05:38:59.702Z,28.38
2022-12-04T05:41:26.484Z,26.30
2022-12-04T05:43:53.292Z,21.73
2022-12-04T05:46:20.113Z,21.30
2022-12-04T05:48:46.977Z,23.05
2022-12-04T05:51:13.942Z,22.10
2022-12-04T05:53:40.909Z,24.33
2022-12-04T05:56:08.422Z,19.77
2022-12-04T05:58:36.705Z,22.52
2022-12-04T06:01:16.849Z,22.00
2022-12-04T06:03:44.430Z,21.02
2022-12-04T06:06:21.469Z,18.98
2022-12-04T06:08:52.959Z,25.15
2022-12-04T06:11:23.747Z,25.55
2022-12-04T06:13:50.814Z,27.63
2022-12-04T06:16:26.630Z,27.38
2022-12-04T06:18:55.915Z,27.15
2022-12-04T06:21:24.188Z,26.65
2022-12-04T06:23:52.312Z,38.20
2022-12-04T06:26:19.851Z,31.48
2022-12-04T06:28:47.005Z,28.58
2022-12-04T06:31:16.024Z,31.73
2022-12-04T06:33:43.203Z,26.38
2022-12-04T06:36:15.767Z,28.20
2022-12-04T06:38:43.093Z,33.45
2022-12-04T06:41:13.189Z,31.40
2022-12-04T06:43:40.613Z,31.33
2022-12-04T06:46:16.315Z,34.20
2022-12-04T06:48:43.472Z,32.47
2022-12-04T06:51:22.198Z,33.55
2022-12-04T06:53:49.598Z,33.38
2022-12-04T06:56:18.780Z,30.63
2022-12-04T06:58:46.694Z,27.30
2022-12-04T07:01:15.648Z,27.02
2022-12-04T07:03:47.814Z,30.55
2022-12-04T07:06:22.415Z,35.40
2022-12-04T07:08:55.310Z,37.25
2022-12-04T07:11:22.553Z,24.98
2022-12-04T07:13:50.360Z,30.02
2022-12-04T07:16:20.220Z,23.42
2022-12-04T07:18:50.400Z,29.38
2022-12-04T07:21:19.142Z,29.83
2022-12-04T07:23:50.161Z,25.80
2022-12-04T07:26:17.456Z,29.88
2022-12-04T07:28:47.139Z,26.20
2022-12-04T07:31:19.753Z,26.98
2022-12-04T07:33:48.000Z,24.65
2022-12-04T07:36:19.500Z,32.40
2022-12-04T07:38:46.934Z,24.58
2022-12-04T07:41:14.679Z,21.67
2022-12-04T07:43:41.918Z,24.27
2022-12-04T07:46:12.606Z,27.90
2022-12-04T07:48:39.935Z,26.35
2022-12-04T07:51:09.361Z,22.55
2022-12-04T07:53:37.053Z,22.88
2022-12-04T07:56:05.685Z,24.60
2022-12-04T07:58:33.537Z,26.38
2022-12-04T08:01:09.645Z,26.00
2022-12-04T08:03:40.845Z,23.08
2022-12-04T08:08:57.538Z,23.08
2022-12-04T08:11:26.439Z,26.27
2022-12-04T08:13:58.824Z,26.17
2022-12-04T08:16:27.112Z,29.75
2022-12-04T08:18:54.356Z,26.10
2022-12-04T08:21:24.097Z,29.50
2022-12-04T08:23:52.806Z,26.95
2022-12-04T08:26:20.908Z,26.25
2022-12-04T08:28:47.856Z,29.10
2022-12-04T08:31:20.997Z,27.48
2022-12-04T08:33:49.296Z,33.22
2022-12-04T08:36:19.717Z,30.45
2022-12-04T08:38:47.418Z,26.23
2022-12-04T08:41:16.669Z,29.75
2022-12-04T08:43:43.646Z,34.88
2022-12-04T08:46:13.617Z,43.83
2022-12-04T08:48:40.899Z,35.78
2022-12-04T08:51:17.325Z,26.17
2022-12-04T08:53:44.245Z,23.63
2022-12-04T08:56:11.245Z,36.08
2022-12-04T08:58:38.990Z,25.73
2022-12-04T09:01:08.189Z,27.15
2022-12-04T09:03:35.726Z,25.70
2022-12-04T09:06:04.695Z,23.10
2022-12-04T09:08:32.147Z,27.60
2022-12-04T09:11:15.987Z,26.38
2022-12-04T09:13:43.665Z,26.02
2022-12-04T09:16:14.522Z,26.77
2022-12-04T09:18:41.440Z,23.60
2022-12-04T09:21:12.076Z,24.58
2022-12-04T09:23:39.872Z,25.92
2022-12-04T09:26:18.969Z,24.77
2022-12-04T09:28:47.047Z,31.55
2022-12-04T09:31:14.423Z,52.78
2022-12-04T09:33:41.348Z,44.92
2022-12-04T09:36:08.307Z,43.78
2022-12-04T09:38:35.221Z,44.05
2022-12-04T09:41:17.400Z,65.13
2022-12-04T09:43:51.480Z,66.97
2022-12-04T09:46:34.228Z,121.35
2022-12-04T09:49:07.020Z,145.40
2022-12-04T09:51:38.482Z,90.63
2022-12-04T09:54:33.179Z,57.67
2022-12-04T09:57:31.217Z,53.17
2022-12-04T09:59:58.722Z,61.60
2022-12-04T10:02:29.088Z,56.22
2022-12-04T10:04:56.749Z,67.78
2022-12-04T10:07:30.712Z,97.97
2022-12-04T10:10:03.335Z,59.65
2022-12-04T10:12:45.615Z,56.65
2022-12-04T10:15:41.691Z,38.05
2022-12-04T10:18:35.515Z,43.15
2022-12-04T10:21:11.419Z,55.95
2022-12-04T10:23:59.133Z,51.00
2022-12-04T10:26:33.473Z,51.75
2022-12-04T10:29:04.016Z,75.72
2022-12-04T10:31:34.308Z,62.85
2022-12-04T10:34:23.661Z,71.47
2022-12-04T10:36:55.433Z,43.00
2022-12-04T10:39:45.590Z,49.63
2022-12-04T10:42:40.943Z,94.40
2022-12-04T10:45:08.273Z,62.97
2022-12-04T10:47:35.499Z,54.40
2022-12-04T10:50:16.079Z,51.25
2022-12-04T10:52:43.046Z,41.95
2022-12-04T10:55:10.176Z,60.70
2022-12-04T10:57:46.285Z,54.08
2022-12-04T11:00:26.211Z,54.05
2022-12-04T11:02:55.313Z,50.30
2022-12-04T11:05:47.852Z,57.70
2022-12-04T11:08:24.551Z,64.65
2022-12-04T11:11:01.470Z,63.47
2022-12-04T11:13:29.172Z,49.90
2022-12-04T11:15:58.620Z,42.20
2022-12-04T11:18:30.529Z,42.38
2022-12-04T11:21:05.250Z,45.92
2022-12-04T11:26:08.698Z,44.25
2022-12-04T11:28:42.405Z,48.60
2022-12-04T11:31:16.747Z,57.13
2022-12-04T11:33:52.761Z,52.60
2022-12-04T11:36:28.237Z,45.22
2022-12-04T11:39:16.432Z,55.85
2022-12-04T11:41:43.903Z,49.13
2022-12-04T11:44:27.322Z,52.47
2022-12-04T11:46:56.762Z,56.70
2022-12-04T11:49:26.220Z,56.80
2022-12-04T11:52:05.373Z,58.35
2022-12-04T11:54:53.969Z,56.00
2022-12-04T11:57:31.610Z,34.25
2022-12-04T12:00:15.118Z,44.90
2022-12-04T12:02:56.948Z,43.90
2022-12-04T12:05:43.889Z,43.60
2022-12-04T12:08:16.862Z,39.90
2022-12-04T12:11:07.099Z,34.67
2022-12-04T12:13:37.612Z,39.67
2022-12-04T12:16:29.158Z,33.85
2022-12-04T12:21:54.100Z,39.83
2022-12-04T12:32:49.018Z,36.58
2022-12-04T12:37:54.525Z,36.85
2022-12-04T12:40:48.680Z,50.10
2022-12-04T12:46:34.208Z,47.17
2022-12-04T12:49:07.858Z,44.50
2022-12-04T13:00:07.726Z,50.85
2022-12-04T13:03:02.864Z,41.50
2022-12-04T13:05:41.090Z,47.15
2022-12-04T13:08:21.486Z,55.67
2022-12-04T13:11:10.521Z,50.30
2022-12-04T13:13:52.948Z,53.78
2022-12-04T13:16:40.228Z,51.17
2022-12-04T13:19:24.825Z,63.58
2022-12-04T13:22:15.743Z,49.35
2022-12-04T13:24:58.119Z,47.33
2022-12-04T13:27:53.089Z,50.42
2022-12-04T13:30:23.352Z,53.72
2022-12-04T13:33:15.929Z,48.50
2022-12-04T13:36:07.050Z,48.35
2022-12-04T13:38:55.098Z,55.72
2022-12-04T13:41:27.155Z,66.63
2022-12-04T13:43:55.204Z,59.20
2022-12-04T13:46:54.624Z,51.10
2022-12-04T13:49:37.975Z,48.50
2022-12-04T13:52:21.010Z,60.25
2022-12-04T13:54:59.076Z,51.67
2022-12-04T13:57:28.257Z,43.00
2022-12-04T14:00:23.649Z,51.78
2022-12-04T14:02:53.997Z,52.67
2022-12-04T14:05:31.593Z,53.88
2022-12-04T14:08:07.538Z,48.83
2022-12-04T14:10:38.661Z,42.70
2022-12-04T14:13:14.696Z,51.05
2022-12-04T14:15:42.042Z,54.50
2022-12-04T14:18:12.423Z,53.25
2022-12-04T14:20:41.635Z,54.75
2022-12-04T14:23:26.045Z,50.15
2022-12-04T14:25:57.940Z,43.13
2022-12-04T14:28:26.832Z,43.55
2022-12-04T14:31:08.540Z,38.08
2022-12-04T14:33:44.291Z,35.65
2022-12-04T14:36:21.098Z,37.08
2022-12-04T14:38:50.715Z,73.38
2022-12-04T14:41:26.097Z,38.03
2022-12-04T14:43:53.681Z,53.13
2022-12-04T14:46:37.160Z,39.60
2022-12-04T14:49:36.995Z,39.78
2022-12-04T14:52:08.662Z,42.92
2022-12-04T14:54:49.638Z,43.38
2022-12-04T14:57:31.231Z,40.45
2022-12-04T14:59:58.395Z,30.35
2022-12-04T15:02:33.541Z,30.52
2022-12-04T15:05:02.113Z,33.05
2022-12-04T15:07:31.664Z,34.75
2022-12-04T15:10:19.830Z,35.05
2022-12-04T15:12:54.426Z,37.35
2022-12-04T15:15:28.278Z,33.35
2022-12-04T15:18:01.443Z,39.00
2022-12-04T15:20:39.229Z,39.20
2022-12-04T15:23:06.504Z,39.58
2022-12-04T15:25:41.540Z,38.60
2022-12-04T15:28:24.678Z,30.05
2022-12-04T15:30:52.782Z,28.25
2022-12-04T15:33:23.842Z,32.95
2022-12-04T15:35:55.359Z,33.88
2022-12-04T15:38:23.110Z,37.17
2022-12-04T15:40:56.027Z,39.50
2022-12-04T15:43:38.973Z,38.47
2022-12-04T15:46:24.957Z,52.47
2022-12-04T15:48:51.819Z,63.92
2022-12-04T15:51:21.383Z,56.13
2022-12-04T15:53:48.284Z,97.63
2022-12-04T15:56:20.479Z,60.28
2022-12-04T15:58:59.814Z,56.13
2022-12-04T16:01:27.337Z,58.38
2022-12-04T16:03:56.174Z,48.45
2022-12-04T16:06:25.008Z,104.47
2022-12-04T16:08:57.637Z,66.75
2022-12-04T16:11:31.013Z,69.57
2022-12-04T16:14:05.648Z,45.30
2022-12-04T16:16:32.586Z,53.42
2022-12-04T16:19:07.881Z,57.45
2022-12-04T16:21:35.955Z,54.47
2022-12-04T16:24:07.497Z,61.13
2022-12-04T16:26:34.393Z,51.17
2022-12-04T16:29:01.345Z,46.03
2022-12-04T16:31:28.253Z,42.25
2022-12-04T16:33:55.118Z,37.15
2022-12-04T16:36:21.876Z,51.67
2022-12-04T16:38:48.708Z,54.60
2022-12-04T16:41:17.548Z,55.83
2022-12-04T16:43:44.859Z,54.00
2022-12-04T16:46:16.969Z,64.68
2022-12-04T16:48:44.317Z,61.53
2022-12-04T16:51:24.859Z,45.72
2022-12-04T16:53:52.958Z,57.03
2022-12-04T16:56:20.514Z,75.60
2022-12-04T16:58:47.909Z,77.93
2022-12-04T17:01:25.782Z,73.55
2022-12-04T17:03:52.981Z,62.60
2022-12-04T17:06:20.531Z,80.25
2022-12-04T17:08:49.085Z,85.82
2022-12-04T17:11:17.641Z,88.72
2022-12-04T17:13:45.154Z,78.13
2022-12-04T17:16:15.035Z,59.35
2022-12-04T17:18:43.479Z,55.10
2022-12-04T17:21:12.353Z,57.85
2022-12-04T17:23:40.176Z,50.60
2022-12-04T17:26:09.439Z,60.03
2022-12-04T17:28:36.914Z,58.05
2022-12-04T17:31:06.265Z,51.00
2022-12-04T17:33:33.275Z,47.13
2022-12-04T17:36:03.531Z,49.35
2022-12-04T17:38:30.548Z,34.63
2022-12-04T17:41:02.690Z,38.33
2022-12-04T17:43:31.537Z,28.15
2022-12-04T17:45:59.189Z,32.35
2022-12-04T17:48:27.573Z,33.50
2022-12-04T17:51:10.654Z,37.22
2022-12-04T17:53:38.290Z,33.30
2022-12-04T17:56:08.738Z,29.65
2022-12-04T17:58:36.476Z,33.00
2022-12-04T18:01:09.313Z,30.60
2022-12-04T18:03:37.681Z,30.35
2022-12-04T18:06:18.055Z,30.60
2022-12-04T18:08:50.001Z,28.65
2022-12-04T18:11:20.780Z,33.72
2022-12-04T18:13:56.774Z,31.67
2022-12-04T18:16:24.270Z,30.15
2022-12-04T18:18:54.086Z,27.45
2022-12-04T18:21:21.906Z,27.50
2022-12-04T18:23:49.276Z,35.53
2022-12-04T18:26:24.705Z,30.85
2022-12-04T18:28:51.674Z,28.15
2022-12-04T18:31:19.536Z,31.15
2022-12-04T18:33:46.984Z,29.38
2022-12-04T18:36:26.033Z,39.65
2022-12-04T18:38:58.324Z,34.30
2022-12-04T18:41:26.511Z,35.00
2022-12-04T18:43:53.668Z,53.50
2022-12-04T18:46:21.513Z,59.08
2022-12-04T18:48:49.768Z,69.55
2022-12-04T18:51:21.194Z,71.70
2022-12-04T18:53:49.504Z,57.83
2022-12-04T18:56:17.528Z,65.05
2022-12-04T18:58:46.508Z,55.47
2022-12-04T19:01:20.256Z,48.88
2022-12-04T19:03:48.033Z,49.78
2022-12-04T19:06:15.479Z,42.13
2022-12-04T19:08:43.657Z,48.25
2022-12-04T19:11:15.886Z,50.17
2022-12-04T19:13:43.269Z,40.25
2022-12-04T19:16:15.008Z,42.13
2022-12-04T19:18:45.289Z,80.55
2022-12-04T19:21:13.485Z,68.53
2022-12-04T19:23:41.174Z,40.70
2022-12-04T19:26:08.633Z,46.50
2022-12-04T19:28:36.588Z,44.83
2022-12-04T19:31:04.331Z,38.65
2022-12-04T19:33:31.182Z,37.47
2022-12-04T19:36:03.893Z,39.97
2022-12-04T19:38:31.884Z,49.95
2022-12-04T19:41:10.375Z,45.78
2022-12-04T19:43:39.290Z,36.67
2022-12-04T19:46:08.322Z,40.05
2022-12-04T19:48:37.947Z,36.83
2022-12-04T19:51:12.361Z,31.42
2022-12-04T19:53:42.841Z,36.78
2022-12-04T19:56:24.569Z,31.35
2022-12-04T19:58:53.314Z,41.63
2022-12-04T20:01:26.738Z,37.10
2022-12-04T20:03:54.954Z,35.17
2022-12-04T20:06:28.550Z,33.83
2022-12-04T20:09:10.146Z,33.33
2022-12-04T20:11:41.200Z,29.50
2022-12-04T20:14:11.901Z,31.52
2022-12-04T20:16:40.040Z,31.85
2022-12-04T20:19:13.859Z,32.65
2022-12-04T20:21:40.990Z,33.25
2022-12-04T20:24:08.244Z,43.67
2022-12-04T20:26:38.526Z,32.20
2022-12-04T20:29:06.888Z,38.75
2022-12-04T20:31:37.428Z,33.50
2022-12-04T20:34:07.336Z,34.72
2022-12-04T20:36:40.223Z,30.55
2022-12-04T20:39:07.686Z,38.50
2022-12-04T20:41:35.610Z,36.25
2022-12-04T20:44:05.109Z,38.30
2022-12-04T20:46:35.241Z,32.17
2022-12-04T20:49:05.064Z,55.78
2022-12-04T20:51:34.805Z,130.43
2022-12-04T20:54:02.448Z,39.10
2022-12-04T20:56:32.069Z,36.03
2022-12-04T20:59:01.457Z,41.13
2022-12-04T21:01:28.944Z,34.45
2022-12-04T21:03:57.813Z,32.67
2022-12-04T21:06:34.442Z,33.97
2022-12-04T21:09:08.087Z,33.08
2022-12-04T21:11:41.175Z,33.25
2022-12-04T21:14:35.759Z,35.17
2022-12-04T21:17:04.121Z,34.03
2022-12-04T21:19:32.271Z,28.92
2022-12-04T21:21:59.186Z,33.63
2022-12-04T21:24:28.099Z,31.30
2022-12-04T21:26:56.028Z,29.02
2022-12-04T21:29:23.423Z,37.65
2022-12-04T21:31:50.208Z,33.25
2022-12-04T21:34:18.045Z,36.95
2022-12-04T21:36:46.461Z,30.80
2022-12-04T21:39:14.840Z,32.75
2022-12-04T21:42:00.783Z,38.05
2022-12-04T21:44:27.966Z,36.00
2022-12-04T21:46:55.143Z,34.08
2022-12-04T21:49:22.383Z,37.80
2022-12-04T21:51:57.318Z,32.22
2022-12-04T21:54:25.461Z,32.90
2022-12-04T21:56:52.365Z,31.60
2022-12-04T21:59:19.202Z,32.70
2022-12-04T22:01:46.314Z,35.47
2022-12-04T22:04:13.616Z,32.63
2022-12-04T22:06:40.703Z,31.60
2022-12-04T22:09:09.332Z,46.63
2022-12-04T22:11:36.920Z,31.63
2022-12-04T22:14:04.317Z,31.42
2022-12-04T22:16:33.686Z,35.17
2022-12-04T22:19:02.668Z,42.55
2022-12-04T22:21:30.027Z,36.50
2022-12-04T22:24:01.998Z,40.45
2022-12-04T22:26:29.876Z,36.97
2022-12-04T22:28:57.688Z,38.33
2022-12-04T22:31:27.348Z,37.60
2022-12-04T22:33:56.286Z,38.00
2022-12-04T22:36:30.400Z,34.15
2022-12-04T22:39:12.914Z,33.95
2022-12-04T22:41:40.215Z,38.05
2022-12-04T22:44:07.104Z,30.25
2022-12-04T22:46:34.712Z,31.40
2022-12-04T22:49:01.613Z,35.83
2022-12-04T22:51:28.607Z,32.92
2022-12-04T22:53:58.135Z,31.50
2022-12-04T22:56:29.135Z,30.52
2022-12-04T22:58:57.905Z,36.60
2022-12-04T23:01:30.517Z,33.92
2022-12-04T23:03:57.762Z,40.83
2022-12-04T23:06:26.585Z,32.58
2022-12-04T23:08:58.374Z,32.67
2022-12-04T23:11:26.430Z,37.88
2022-12-04T23:13:56.275Z,32.83
2022-12-04T23:16:24.250Z,35.47
2022-12-04T23:18:51.442Z,38.47
2022-12-04T23:21:19.912Z,35.55
2022-12-04T23:23:48.069Z,35.95
2022-12-04T23:26:17.989Z,41.83
2022-12-04T23:28:45.236Z,33.20
2022-12-04T23:31:12.663Z,28.65
2022-12-04T23:33:40.977Z,42.22
2022-12-04T23:36:09.709Z,35.28
2022-12-04T23:38:38.279Z,33.40
2022-12-04T23:41:13.530Z,37.22
2022-12-04T23:43:41.093Z,37.08
2022-12-04T23:46:11.281Z,36.92
2022-12-04T23:48:40.219Z,32.70
2022-12-04T23:51:07.678Z,29.83
2022-12-04T23:53:35.614Z,37.63
2022-12-04T23:56:12.345Z,29.67
2022-12-04T23:58:40.118Z,29.55
